Latest Weather Observations for Strathalbyn

IDS60801

Issued at 2:31 pm CST Sunday 28 August 2016 (issued every 30 minutes, with the page automatically refreshed every 10 minutes)

About weather observations | Map of weather stations | Latest weather observations for SA | Other Formats
Station Details ID: 024580 Name: STRATHALBYN RACECOURSE Lat: -35.28 Lon: 138.89 Height: 58.0 m
Data from the previous 72 hours. | See also: Recent months at Strathalbyn
Date/Time
CST
Temp
°C
App
Temp
°C
Dew
Point
°C
Rel
Hum
%
Delta-T
°C
Wind Press
QNH
hPa
Press
MSL
hPa
Rain since
9am
mm
Dir  Spd
km/h
Gust
km/h
Spd
kts
Gust
kts
28/02:30pm 20.9 14.6 5.7 37 7.6 NNE 28 37 15 20 1013.9 - 0.0
28/02:00pm 21.4 15.6 4.5 33 8.3 NNE 24 32 13 17 1014.1 - 0.0
28/01:30pm 20.4 14.5 4.0 34 7.9 NNE 24 35 13 19 1014.5 - 0.0
28/01:00pm 20.0 14.0 3.3 33 7.9 NNE 24 32 13 17 1015.0 - 0.0
28/12:30pm 20.7 14.2 2.5 30 8.5 N 26 35 14 19 1015.5 - 0.0
28/12:00pm 20.6 15.0 3.3 32 8.2 N 22 35 12 19 1016.0 1016.1 0.0
28/11:30am 20.0 14.3 2.8 32 8.1 N 22 33 12 18 1016.4 - 0.0
28/11:00am 18.5 12.7 2.4 34 7.4 N 22 33 12 18 1016.7 - 0.0
28/10:30am 19.5 13.8 2.8 33 7.8 NNE 22 28 12 15 1017.0 - 0.0
28/10:00am 18.5 13.6 3.9 38 6.9 NNE 19 26 10 14 1017.3 - 0.0
28/09:30am 16.3 12.5 5.6 49 5.2 NNE 15 24 8 13 1017.3 - 0.0
28/09:00am 16.6 12.6 4.9 46 5.6 NE 15 20 8 11 1017.3 1017.4 0.0
28/08:30am 13.6 10.3 4.7 55 4.1 NNE 11 13 6 7 1017.5 - 0.0
28/08:00am 12.5 8.7 4.0 56 3.8 N 13 15 7 8 1017.6 - 0.0
28/07:30am 9.6 6.1 3.4 65 2.7 N 11 15 6 8 1017.5 - 0.0
28/07:00am 6.2 3.2 2.3 76 1.6 NNE 7 11 4 6 1017.4 - 0.0
28/06:30am 6.0 2.8 1.0 70 2.0 N 7 9 4 5 1017.3 - 0.0
28/06:00am 8.0 4.6 1.8 65 2.5 N 9 11 5 6 1017.2 1017.3 0.0
28/05:30am 8.0 4.3 2.3 67 2.4 NNE 11 13 6 7 1017.2 - 0.0
28/05:00am 7.4 4.4 2.3 70 2.1 NNE 7 11 4 6 1017.0 - 0.0
28/04:30am 8.2 4.9 2.7 68 2.3 N 9 11 5 6 1016.9 - 0.0
28/04:00am 9.8 6.3 3.3 64 2.8 N 11 13 6 7 1016.9 - 0.0
28/03:30am 9.7 6.6 3.4 65 2.7 N 9 11 5 6 1017.0 - 0.0
28/03:00am 9.1 5.6 3.7 69 2.3 N 11 13 6 7 1017.3 1017.4 0.0
28/02:30am 9.3 5.5 3.7 68 2.4 NW 13 15 7 8 1017.5 - 0.0
28/02:00am 9.3 5.9 3.9 69 2.4 NNW 11 13 6 7 1017.7 - 0.0
28/01:30am 8.2 4.6 2.9 69 2.2 N 11 13 6 7 1018.0 - 0.0
28/01:00am 8.7 5.9 3.1 68 2.4 N 7 9 4 5 1018.1 - 0.0
28/12:30am 10.3 6.8 3.3 62 3.1 N 11 20 6 11 1018.0 - 0.0
28/12:00am 9.0 5.5 3.6 69 2.3 N 11 13 6 7 1018.0 1018.1 0.0
 
Date/Time
CST
Temp
°C
App
Temp
°C
Dew
Point
°C
Rel
Hum
%
Delta-T
°C
Wind Press
QNH
hPa
Press
MSL
hPa
Rain since
9am
mm
Dir  Spd
km/h
Gust
km/h
Spd
kts
Gust
kts
27/11:30pm 8.9 5.4 3.7 70 2.3 N 11 13 6 7 1017.9 - 0.0
27/11:00pm 9.1 6.1 4.3 72 2.1 NNW 9 11 5 6 1018.0 - 0.0
27/10:30pm 9.2 5.8 4.0 70 2.3 N 11 13 6 7 1018.3 - 0.0
27/10:00pm 10.8 7.0 3.8 62 3.1 NNW 13 17 7 9 1018.3 - 0.0
27/09:30pm 11.2 7.5 4.2 62 3.1 NNW 13 15 7 8 1018.6 - 0.0
27/09:00pm 10.4 7.2 5.0 69 2.4 NNW 11 15 6 8 1018.7 1018.8 0.0
27/08:30pm 9.8 6.6 5.2 73 2.1 N 11 15 6 8 1018.8 - 0.0
27/08:00pm 9.6 6.4 5.2 74 2.0 N 11 13 6 7 1018.8 - 0.0
27/07:30pm 10.4 6.8 5.0 69 2.5 N 13 13 7 7 1018.7 - 0.0
27/07:00pm 10.2 7.4 5.2 71 2.3 NNW 9 11 5 6 1018.7 - 0.0
27/06:30pm 11.5 8.6 4.9 64 3.0 N 9 11 5 6 1018.5 - 0.0
27/06:00pm 12.4 9.5 4.9 60 3.4 N 9 11 5 6 1018.2 1018.3 0.0
27/05:30pm 13.8 10.4 3.9 51 4.5 N 11 13 6 7 1018.1 - 0.0
27/05:00pm 14.5 11.6 4.5 51 4.6 N 9 11 5 6 1017.9 - 0.0
27/04:30pm 15.8 11.9 3.3 43 5.7 N 13 20 7 11 1018.0 - 0.0
27/04:00pm 16.5 13.1 4.2 44 5.8 N 11 17 6 9 1018.0 - 0.0
27/03:30pm 15.7 11.4 3.5 44 5.6 NNW 15 20 8 11 1018.0 - 0.0
27/03:00pm 15.7 10.1 3.2 43 5.7 N 22 32 12 17 1018.1 1018.2 0.0
27/02:30pm 16.1 10.7 2.2 39 6.2 N 20 30 11 16 1018.1 - 0.0
27/02:00pm 15.9 9.7 2.3 40 6.1 N 24 37 13 20 1018.7 - 0.0
27/01:30pm 16.2 11.2 1.5 37 6.5 N 17 26 9 14 1019.2 - 0.0
27/01:00pm 15.9 9.6 1.6 38 6.3 NNW 24 33 13 18 1019.5 - 0.0
27/12:30pm 16.3 10.2 0.4 34 6.9 N 22 32 12 17 1019.9 - 0.0
27/12:00pm 15.6 9.4 2.1 40 6.0 N 24 35 13 19 1020.3 1020.4 0.0
27/11:30am 16.3 10.3 3.4 42 5.9 NNW 24 35 13 19 1020.9 - 0.0
27/11:00am 15.9 10.7 3.4 43 5.7 N 20 30 11 16 1021.2 - 0.0
27/10:30am 15.3 10.7 3.5 45 5.4 N 17 24 9 13 1021.2 - 0.0
27/10:00am 14.5 10.0 4.2 50 4.8 N 17 24 9 13 1021.5 - 0.0
27/09:30am 13.4 8.6 4.6 55 4.1 N 19 26 10 14 1021.8 - 0.0
27/09:00am 10.9 6.7 3.7 61 3.2 N 15 20 8 11 1022.1 1022.1 0.0
27/08:30am 10.5 6.3 3.8 63 3.0 N 15 19 8 10 1022.1 - 0.0
27/08:00am 8.7 5.2 3.7 71 2.2 N 11 13 6 7 1022.1 - 0.0
27/07:30am 6.9 2.6 3.2 77 1.6 N 15 17 8 9 1021.9 - 0.0
27/07:00am 4.2 0.4 1.9 85 0.9 N 11 13 6 7 1021.7 - 0.0
27/06:30am 4.2 0.7 1.2 81 1.2 N 9 13 5 7 1021.8 - 0.0
27/06:00am 5.2 1.4 1.9 79 1.3 N 11 13 6 7 1021.6 1021.6 0.0
27/05:30am 5.1 1.2 1.4 77 1.5 N 11 13 6 7 1021.8 - 0.0
27/05:00am 5.4 1.6 1.5 76 1.6 N 11 15 6 8 1021.7 - 0.0
27/04:30am 5.1 0.9 1.6 78 1.4 N 13 17 7 9 1021.7 - 0.0
27/04:00am 5.4 0.8 1.5 76 1.6 N 15 19 8 10 1021.8 - 0.0
27/03:30am 4.8 0.2 1.5 79 1.3 N 15 17 8 9 1021.9 - 0.0
27/03:00am 4.9 0.7 1.4 78 1.4 N 13 15 7 8 1022.0 1022.0 0.0
27/02:30am 5.7 1.2 2.0 77 1.5 N 15 19 8 10 1022.5 - 0.0
27/02:00am 5.1 0.5 1.6 78 1.4 N 15 17 8 9 1022.7 - 0.0
27/01:30am 5.5 0.9 1.8 77 1.5 N 15 17 8 9 1022.9 - 0.0
27/01:00am 5.7 1.6 2.2 78 1.4 NNW 13 15 7 8 1022.7 - 0.0
27/12:30am 5.7 1.6 2.4 79 1.3 N 13 17 7 9 1023.0 - 0.0
27/12:00am 5.3 1.6 2.1 80 1.3 NNW 11 13 6 7 1022.8 1022.8 0.0
 
Date/Time
CST
Temp
°C
App
Temp
°C
Dew
Point
°C
Rel
Hum
%
Delta-T
°C
Wind Press
QNH
hPa
Press
MSL
hPa
Rain since
9am
mm
Dir  Spd
km/h
Gust
km/h
Spd
kts
Gust
kts
26/11:30pm 5.7 1.6 2.5 80 1.3 N 13 15 7 8 1023.2 - 0.0
26/11:00pm 6.9 3.0 3.3 78 1.5 N 13 15 7 8 1023.5 - 0.0
26/10:30pm 7.4 3.9 3.6 77 1.6 N 11 13 6 7 1023.7 - 0.0
26/10:00pm 7.8 4.8 4.0 77 1.6 N 9 13 5 7 1023.9 - 0.0
26/09:30pm 8.2 4.9 4.8 79 1.5 N 11 13 6 7 1024.1 - 0.0
26/09:00pm 8.1 4.8 4.7 79 1.5 N 11 13 6 7 1024.0 1024.0 0.0
26/08:30pm 8.8 5.5 4.8 76 1.8 N 11 13 6 7 1024.1 - 0.0
26/08:00pm 9.0 6.5 5.0 76 1.8 N 7 13 4 7 1024.2 - 0.0
26/07:30pm 9.1 6.2 4.7 74 2.0 N 9 11 5 6 1024.1 - 0.0
26/07:00pm 9.6 6.1 3.6 66 2.6 W 11 13 6 7 1023.9 - 0.0
26/06:30pm 8.7 5.4 4.7 76 1.8 WNW 11 11 6 6 1023.6 - 0.0
26/06:00pm 8.9 6.0 2.7 65 2.6 W 7 9 4 5 1023.4 1023.4 0.0
26/05:30pm 10.6 7.4 2.9 59 3.3 W 9 13 5 7 1023.3 - 0.0
26/05:00pm 12.1 8.4 2.3 51 4.2 NW 11 15 6 8 1023.2 - 0.0
26/04:30pm 12.1 8.4 2.3 51 4.2 W 11 17 6 9 1022.9 - 0.0
26/04:00pm 12.1 7.7 2.8 53 4.1 WSW 15 20 8 11 1023.0 - 0.0
26/03:30pm 12.4 8.3 4.6 59 3.6 W 15 22 8 12 1022.9 - 0.0
26/03:00pm 12.5 7.5 3.7 55 3.9 W 19 24 10 13 1022.9 1022.9 0.0
26/02:30pm 13.2 8.8 2.7 49 4.6 W 15 20 8 11 1023.0 - 0.0
26/02:00pm 13.0 8.7 3.1 51 4.4 WNW 15 22 8 12 1023.2 - 0.0
26/01:30pm 13.5 9.5 2.7 48 4.8 NNW 13 19 7 10 1023.3 - 0.0
26/01:00pm 13.1 8.6 2.4 48 4.7 NW 15 20 8 11 1023.5 - 0.0
26/12:30pm 13.1 9.7 4.0 54 4.1 S 11 17 6 9 1023.8 - 0.0
26/12:00pm 13.6 10.2 4.2 53 4.3 SW 11 17 6 9 1024.3 1024.3 0.0
26/11:30am 13.0 9.3 2.5 49 4.6 SW 11 15 6 8 1024.7 - 0.0
26/11:00am 12.7 8.8 3.4 53 4.2 SW 13 19 7 10 1025.1 - 0.0
26/10:30am 12.3 7.3 3.5 55 3.9 SSW 19 22 10 12 1024.9 - 0.0
26/10:00am 11.9 8.3 5.1 63 3.1 SW 13 17 7 9 1025.0 - 0.0
26/09:30am 11.2 7.5 4.4 63 3.1 WSW 13 19 7 10 1025.1 - 0.0
26/09:00am 10.7 7.9 5.3 69 2.5 WSW 9 13 5 7 1025.1 1025.1 0.6
26/08:30am 10.5 6.9 4.9 68 2.5 W 13 20 7 11 1024.9 - 0.6
26/08:00am 9.8 6.2 4.8 71 2.2 W 13 17 7 9 1024.6 - 0.6
26/07:30am 9.5 5.8 4.7 72 2.1 W 13 15 7 8 1024.5 - 0.6
26/07:00am 9.1 5.4 4.5 73 2.0 W 13 17 7 9 1024.2 - 0.6
26/06:30am 8.8 5.5 4.4 74 1.9 W 11 15 6 8 1023.9 - 0.6
26/06:00am 9.0 4.9 4.6 74 1.9 W 15 20 8 11 1023.5 1023.5 0.6
26/05:30am 8.8 4.8 4.8 76 1.8 W 15 19 8 10 1023.2 - 0.6
26/05:00am 8.2 5.4 5.1 81 1.4 WNW 9 17 5 9 1022.9 - 0.6
26/04:30am 8.3 5.1 4.9 79 1.5 WNW 11 13 6 7 1022.7 - 0.6
26/04:00am 8.7 5.6 5.6 81 1.4 W 11 15 6 8 1022.7 - 0.6
26/03:30am 8.8 5.4 5.9 82 1.3 W 13 15 7 8 1022.7 - 0.6
26/03:00am 8.9 5.5 6.0 82 1.3 W 13 15 7 8 1022.7 1022.7 0.6
26/02:30am 8.7 5.7 6.0 83 1.2 W 11 15 6 8 1022.9 - 0.6
26/02:00am 8.6 5.6 6.2 85 1.1 W 11 13 6 7 1023.0 - 0.6
26/01:30am 8.8 5.0 5.9 82 1.3 W 15 20 8 11 1023.0 - 0.6
26/01:00am 8.3 5.6 5.4 82 1.3 W 9 11 5 6 1023.0 - 0.6
26/12:30am 7.9 4.3 5.0 82 1.3 W 13 17 7 9 1022.8 - 0.4
26/12:00am 7.1 3.4 4.2 82 1.2 W 13 15 7 8 1022.8 1022.8 0.4
 
Date/Time
CST
Temp
°C
App
Temp
°C
Dew
Point
°C
Rel
Hum
%
Delta-T
°C
Wind Press
QNH
hPa
Press
MSL
hPa
Rain since
9am
mm
Dir  Spd
km/h
Gust
km/h
Spd
kts
Gust
kts
25/11:30pm 7.3 3.2 4.4 82 1.3 W 15 15 8 8 1022.8 - 0.4
25/11:00pm 8.1 4.3 5.6 84 1.1 W 15 17 8 9 1022.8 - 0.4
25/10:30pm 7.7 4.2 5.3 85 1.1 W 13 15 7 8 1022.8 - 0.4
25/10:00pm 7.7 5.6 5.7 87 0.9 W 6 13 3 7 1022.8 - 0.4
25/09:30pm 8.5 7.3 6.5 87 0.9 W 2 9 1 5 1022.7 - 0.4
25/09:00pm 8.9 6.1 6.9 87 0.9 W 11 15 6 8 1022.7 1022.7 0.4
25/08:30pm 8.5 6.6 6.6 88 0.9 SSW 6 9 3 5 1022.7 - 0.4
25/08:00pm 8.1 5.5 5.9 86 1.0 SSW 9 11 5 6 1022.6 - 0.4
25/07:30pm 8.8 6.4 6.8 87 0.9 WSW 9 11 5 6 1022.2 - 0.4
25/07:00pm 9.0 6.6 7.0 87 0.9 S 9 11 5 6 1022.0 - 0.4
25/06:30pm 9.3 7.0 7.3 87 0.9 S 9 13 5 7 1021.7 - 0.4
25/06:00pm 9.4 6.7 5.4 76 1.8 SW 9 13 5 7 1021.4 1021.4 0.0
25/05:30pm 10.1 7.0 5.7 74 2.0 SW 11 15 6 8 1021.2 - 0.0
25/05:00pm 11.5 7.7 5.8 68 2.7 SW 15 20 8 11 1020.6 - 0.0
25/04:30pm 11.9 8.2 6.2 68 2.7 SW 15 22 8 12 1020.4 - 0.0
25/04:00pm 11.5 6.0 5.8 68 2.7 SSW 24 33 13 18 1020.2 - 0.0
25/03:30pm 12.5 7.2 5.2 61 3.4 S 22 32 12 17 1019.8 - 0.0
25/03:00pm 13.1 7.6 5.8 61 3.4 SSW 24 33 13 18 1019.7 1019.8 0.0

Other Formats:

Comma delimited format used in spreadsheet applications
http://www.bom.gov.au/fwo/IDS60801/IDS60801.94814.axf

JavaScript Object Notation format (JSON) in row-major order
http://www.bom.gov.au/fwo/IDS60801/IDS60801.94814.json